sensor_id;sensor_type;location;lat;lon;timestamp;pressure;altitude;pressure_sealevel;temperature;humidity
64192;BME280;50497;50.720;-2.084;2023-07-08T00:00:43;101769.66;;;20.74;100.00
64192;BME280;50497;50.720;-2.084;2023-07-08T00:03:10;101775.94;;;20.75;100.00
64192;BME280;50497;50.720;-2.084;2023-07-08T00:05:36;101770.38;;;20.76;100.00
64192;BME280;50497;50.720;-2.084;2023-07-08T00:08:01;101754.72;;;20.80;100.00
64192;BME280;50497;50.720;-2.084;2023-07-08T00:10:27;101757.94;;;20.85;100.00
64192;BME280;50497;50.720;-2.084;2023-07-08T00:12:56;101760.75;;;20.96;100.00
64192;BME280;50497;50.720;-2.084;2023-07-08T00:15:25;101762.19;;;20.89;100.00
64192;BME280;50497;50.720;-2.084;2023-07-08T00:17:51;101755.13;;;20.86;100.00
64192;BME280;50497;50.720;-2.084;2023-07-08T00:20:20;101742.41;;;20.87;100.00
64192;BME280;50497;50.720;-2.084;2023-07-08T00:22:46;101745.91;;;20.76;100.00
64192;BME280;50497;50.720;-2.084;2023-07-08T00:25:18;101744.13;;;20.88;100.00
64192;BME280;50497;50.720;-2.084;2023-07-08T00:27:46;101738.69;;;20.88;100.00
64192;BME280;50497;50.720;-2.084;2023-07-08T00:30:25;101729.78;;;20.86;100.00
64192;BME280;50497;50.720;-2.084;2023-07-08T00:32:53;101727.63;;;20.78;100.00
64192;BME280;50497;50.720;-2.084;2023-07-08T00:35:36;101732.50;;;20.86;100.00
64192;BME280;50497;50.720;-2.084;2023-07-08T00:38:12;101714.09;;;20.90;100.00
64192;BME280;50497;50.720;-2.084;2023-07-08T00:41:11;101710.84;;;20.84;100.00
64192;BME280;50497;50.720;-2.084;2023-07-08T00:43:38;101701.38;;;20.90;100.00
64192;BME280;50497;50.720;-2.084;2023-07-08T00:46:24;101680.53;;;20.78;100.00
64192;BME280;50497;50.720;-2.084;2023-07-08T00:49:15;101666.75;;;20.68;100.00
64192;BME280;50497;50.720;-2.084;2023-07-08T00:51:42;101650.88;;;20.62;100.00
64192;BME280;50497;50.720;-2.084;2023-07-08T00:54:13;101622.75;;;20.63;100.00
64192;BME280;50497;50.720;-2.084;2023-07-08T00:56:43;101603.56;;;20.40;100.00
64192;BME280;50497;50.720;-2.084;2023-07-08T00:59:28;101630.31;;;20.34;100.00
64192;BME280;50497;50.720;-2.084;2023-07-08T01:01:55;101611.31;;;20.34;100.00
64192;BME280;50497;50.720;-2.084;2023-07-08T01:04:32;101551.09;;;20.16;100.00
64192;BME280;50497;50.720;-2.084;2023-07-08T01:06:59;101513.50;;;20.09;100.00
64192;BME280;50497;50.720;-2.084;2023-07-08T01:09:34;101485.94;;;20.03;100.00
64192;BME280;50497;50.720;-2.084;2023-07-08T01:12:05;101482.88;;;20.07;100.00
64192;BME280;50497;50.720;-2.084;2023-07-08T01:14:34;101481.59;;;20.00;100.00
64192;BME280;50497;50.720;-2.084;2023-07-08T01:17:01;101443.94;;;19.96;100.00
64192;BME280;50497;50.720;-2.084;2023-07-08T01:19:27;101421.16;;;19.85;100.00
64192;BME280;50497;50.720;-2.084;2023-07-08T01:22:00;101417.34;;;19.88;100.00
64192;BME280;50497;50.720;-2.084;2023-07-08T01:24:27;101418.31;;;19.87;100.00
64192;BME280;50497;50.720;-2.084;2023-07-08T01:26:54;101404.56;;;19.77;100.00
64192;BME280;50497;50.720;-2.084;2023-07-08T01:29:20;101393.59;;;19.79;100.00
64192;BME280;50497;50.720;-2.084;2023-07-08T01:31:45;101377.41;;;19.77;100.00
64192;BME280;50497;50.720;-2.084;2023-07-08T01:34:15;101375.50;;;19.66;100.00
64192;BME280;50497;50.720;-2.084;2023-07-08T01:36:44;101384.16;;;19.71;100.00
64192;BME280;50497;50.720;-2.084;2023-07-08T01:39:15;101379.72;;;19.70;100.00
64192;BME280;50497;50.720;-2.084;2023-07-08T01:41:43;101385.84;;;19.61;100.00
64192;BME280;50497;50.720;-2.084;2023-07-08T01:44:38;101377.38;;;19.66;100.00
64192;BME280;50497;50.720;-2.084;2023-07-08T01:47:16;101378.22;;;19.66;100.00
64192;BME280;50497;50.720;-2.084;2023-07-08T01:49:45;101381.50;;;19.58;100.00
64192;BME280;50497;50.720;-2.084;2023-07-08T01:52:12;101384.44;;;19.55;100.00
64192;BME280;50497;50.720;-2.084;2023-07-08T01:54:39;101382.09;;;19.51;100.00
64192;BME280;50497;50.720;-2.084;2023-07-08T01:57:05;101374.94;;;19.50;100.00
64192;BME280;50497;50.720;-2.084;2023-07-08T01:59:30;101363.66;;;19.43;100.00
64192;BME280;50497;50.720;-2.084;2023-07-08T02:01:55;101358.69;;;19.37;100.00
64192;BME280;50497;50.720;-2.084;2023-07-08T02:04:21;101363.66;;;19.43;100.00
64192;BME280;50497;50.720;-2.084;2023-07-08T02:06:56;101348.66;;;19.26;100.00
64192;BME280;50497;50.720;-2.084;2023-07-08T02:09:22;101351.25;;;19.28;100.00
64192;BME280;50497;50.720;-2.084;2023-07-08T02:11:50;101345.84;;;19.28;100.00
64192;BME280;50497;50.720;-2.084;2023-07-08T02:14:15;101353.34;;;19.24;100.00
64192;BME280;50497;50.720;-2.084;2023-07-08T02:16:41;101352.03;;;19.17;100.00
64192;BME280;50497;50.720;-2.084;2023-07-08T02:19:06;101342.75;;;19.08;100.00
64192;BME280;50497;50.720;-2.084;2023-07-08T02:21:31;101319.59;;;18.91;100.00
64192;BME280;50497;50.720;-2.084;2023-07-08T02:23:57;101322.38;;;19.02;100.00
64192;BME280;50497;50.720;-2.084;2023-07-08T02:26:23;101324.13;;;18.91;100.00
64192;BME280;50497;50.720;-2.084;2023-07-08T02:28:48;101325.66;;;18.95;100.00
64192;BME280;50497;50.720;-2.084;2023-07-08T02:31:14;101325.22;;;18.88;100.00
64192;BME280;50497;50.720;-2.084;2023-07-08T02:33:39;101318.72;;;18.78;100.00
64192;BME280;50497;50.720;-2.084;2023-07-08T02:36:05;101308.09;;;18.75;100.00
64192;BME280;50497;50.720;-2.084;2023-07-08T02:38:30;101314.47;;;18.74;100.00
64192;BME280;50497;50.720;-2.084;2023-07-08T02:40:58;101314.63;;;18.59;100.00
64192;BME280;50497;50.720;-2.084;2023-07-08T02:43:23;101303.66;;;18.61;100.00
64192;BME280;50497;50.720;-2.084;2023-07-08T02:45:50;101315.69;;;18.70;100.00
64192;BME280;50497;50.720;-2.084;2023-07-08T02:48:17;101320.00;;;18.72;100.00
64192;BME280;50497;50.720;-2.084;2023-07-08T02:50:42;101322.84;;;18.83;100.00
64192;BME280;50497;50.720;-2.084;2023-07-08T02:53:08;101331.06;;;18.95;100.00
64192;BME280;50497;50.720;-2.084;2023-07-08T02:55:33;101333.66;;;18.96;100.00
64192;BME280;50497;50.720;-2.084;2023-07-08T02:57:59;101346.47;;;18.94;100.00
64192;BME280;50497;50.720;-2.084;2023-07-08T03:00:24;101342.34;;;18.89;100.00
64192;BME280;50497;50.720;-2.084;2023-07-08T03:02:49;101344.97;;;18.90;100.00
64192;BME280;50497;50.720;-2.084;2023-07-08T03:05:15;101344.53;;;18.96;100.00
64192;BME280;50497;50.720;-2.084;2023-07-08T03:07:40;101361.28;;;19.14;100.00
64192;BME280;50497;50.720;-2.084;2023-07-08T03:10:06;101362.28;;;19.00;100.00
64192;BME280;50497;50.720;-2.084;2023-07-08T03:12:31;101363.16;;;19.01;100.00
64192;BME280;50497;50.720;-2.084;2023-07-08T03:14:57;101356.00;;;19.00;100.00
64192;BME280;50497;50.720;-2.084;2023-07-08T03:17:22;101355.25;;;18.98;100.00
64192;BME280;50497;50.720;-2.084;2023-07-08T03:19:47;101355.88;;;19.01;100.00
64192;BME280;50497;50.720;-2.084;2023-07-08T03:22:13;101365.81;;;19.14;100.00
64192;BME280;50497;50.720;-2.084;2023-07-08T03:24:38;101375.59;;;19.16;100.00
64192;BME280;50497;50.720;-2.084;2023-07-08T03:27:11;101390.13;;;19.15;100.00
64192;BME280;50497;50.720;-2.084;2023-07-08T03:29:37;101407.28;;;19.16;100.00
64192;BME280;50497;50.720;-2.084;2023-07-08T03:32:03;101412.16;;;19.11;100.00
64192;BME280;50497;50.720;-2.084;2023-07-08T03:34:28;101413.25;;;19.21;100.00
64192;BME280;50497;50.720;-2.084;2023-07-08T03:36:53;101422.13;;;19.23;100.00
64192;BME280;50497;50.720;-2.084;2023-07-08T03:39:23;101428.63;;;19.20;100.00
64192;BME280;50497;50.720;-2.084;2023-07-08T03:41:50;101434.72;;;19.24;100.00
64192;BME280;50497;50.720;-2.084;2023-07-08T03:44:15;101432.13;;;19.23;100.00
64192;BME280;50497;50.720;-2.084;2023-07-08T03:46:43;101442.75;;;19.13;100.00
64192;BME280;50497;50.720;-2.084;2023-07-08T03:49:09;101442.97;;;19.10;100.00
64192;BME280;50497;50.720;-2.084;2023-07-08T03:51:36;101455.00;;;19.06;100.00
64192;BME280;50497;50.720;-2.084;2023-07-08T03:54:03;101450.69;;;19.03;100.00
64192;BME280;50497;50.720;-2.084;2023-07-08T03:56:29;101461.75;;;19.00;100.00
64192;BME280;50497;50.720;-2.084;2023-07-08T03:58:55;101455.47;;;18.87;100.00
64192;BME280;50497;50.720;-2.084;2023-07-08T04:01:23;101461.53;;;18.90;100.00
64192;BME280;50497;50.720;-2.084;2023-07-08T04:03:50;101458.41;;;18.83;100.00
64192;BME280;50497;50.720;-2.084;2023-07-08T04:06:16;101450.44;;;18.80;100.00
64192;BME280;50497;50.720;-2.084;2023-07-08T04:08:41;101444.38;;;18.77;100.00
64192;BME280;50497;50.720;-2.084;2023-07-08T04:11:10;101441.03;;;18.73;100.00
64192;BME280;50497;50.720;-2.084;2023-07-08T04:13:36;101448.84;;;18.65;100.00
64192;BME280;50497;50.720;-2.084;2023-07-08T04:16:04;101444.16;;;18.54;100.00
64192;BME280;50497;50.720;-2.084;2023-07-08T04:18:30;101446.22;;;18.63;100.00
64192;BME280;50497;50.720;-2.084;2023-07-08T04:20:55;101445.25;;;18.64;100.00
64192;BME280;50497;50.720;-2.084;2023-07-08T04:23:22;101430.28;;;18.59;100.00
64192;BME280;50497;50.720;-2.084;2023-07-08T04:25:49;101433.63;;;18.62;100.00
64192;BME280;50497;50.720;-2.084;2023-07-08T04:28:15;101431.81;;;18.63;100.00
64192;BME280;50497;50.720;-2.084;2023-07-08T04:30:41;101447.09;;;18.77;100.00
64192;BME280;50497;50.720;-2.084;2023-07-08T04:33:11;101448.94;;;18.76;100.00
64192;BME280;50497;50.720;-2.084;2023-07-08T04:35:37;101456.44;;;18.73;100.00
64192;BME280;50497;50.720;-2.084;2023-07-08T04:38:04;101464.91;;;18.81;100.00
64192;BME280;50497;50.720;-2.084;2023-07-08T04:40:35;101451.56;;;18.78;100.00
64192;BME280;50497;50.720;-2.084;2023-07-08T04:43:07;101443.75;;;18.73;100.00
64192;BME280;50497;50.720;-2.084;2023-07-08T04:45:36;101455.06;;;18.93;100.00
64192;BME280;50497;50.720;-2.084;2023-07-08T04:48:03;101460.25;;;18.96;100.00
64192;BME280;50497;50.720;-2.084;2023-07-08T04:50:34;101482.81;;;18.96;100.00
64192;BME280;50497;50.720;-2.084;2023-07-08T04:52:59;101470.09;;;18.84;100.00
64192;BME280;50497;50.720;-2.084;2023-07-08T04:55:25;101479.03;;;18.86;100.00
64192;BME280;50497;50.720;-2.084;2023-07-08T04:57:50;101484.84;;;18.80;100.00
64192;BME280;50497;50.720;-2.084;2023-07-08T05:00:17;101488.97;;;18.86;100.00
64192;BME280;50497;50.720;-2.084;2023-07-08T05:02:44;101493.72;;;18.82;100.00
64192;BME280;50497;50.720;-2.084;2023-07-08T05:05:09;101477.13;;;18.74;100.00
64192;BME280;50497;50.720;-2.084;2023-07-08T05:07:35;101493.72;;;18.82;100.00
64192;BME280;50497;50.720;-2.084;2023-07-08T05:10:00;101500.59;;;18.88;100.00
64192;BME280;50497;50.720;-2.084;2023-07-08T05:12:26;101507.28;;;18.82;100.00
64192;BME280;50497;50.720;-2.084;2023-07-08T05:14:51;101511.22;;;18.91;100.00
64192;BME280;50497;50.720;-2.084;2023-07-08T05:17:17;101512.09;;;18.91;100.00
64192;BME280;50497;50.720;-2.084;2023-07-08T05:19:42;101517.41;;;18.93;100.00
64192;BME280;50497;50.720;-2.084;2023-07-08T05:22:10;101504.72;;;18.93;100.00
64192;BME280;50497;50.720;-2.084;2023-07-08T05:24:35;101498.97;;;18.98;100.00
64192;BME280;50497;50.720;-2.084;2023-07-08T05:27:02;101511.13;;;19.05;100.00
64192;BME280;50497;50.720;-2.084;2023-07-08T05:29:28;101513.19;;;19.01;100.00
64192;BME280;50497;50.720;-2.084;2023-07-08T05:31:53;101498.41;;;19.06;100.00
64192;BME280;50497;50.720;-2.084;2023-07-08T05:34:19;101506.13;;;19.12;100.00
64192;BME280;50497;50.720;-2.084;2023-07-08T05:36:44;101509.25;;;19.18;100.00
64192;BME280;50497;50.720;-2.084;2023-07-08T05:39:10;101506.13;;;19.12;100.00
64192;BME280;50497;50.720;-2.084;2023-07-08T05:41:35;101509.78;;;19.24;100.00
64192;BME280;50497;50.720;-2.084;2023-07-08T05:44:01;101504.16;;;19.27;100.00
64192;BME280;50497;50.720;-2.084;2023-07-08T05:46:26;101519.19;;;19.44;100.00
64192;BME280;50497;50.720;-2.084;2023-07-08T05:48:51;101530.06;;;19.44;100.00
64192;BME280;50497;50.720;-2.084;2023-07-08T05:51:17;101540.59;;;19.48;100.00
64192;BME280;50497;50.720;-2.084;2023-07-08T05:53:42;101540.25;;;19.53;100.00
64192;BME280;50497;50.720;-2.084;2023-07-08T05:56:07;101534.44;;;19.70;100.00
64192;BME280;50497;50.720;-2.084;2023-07-08T05:58:33;101526.09;;;19.73;100.00
64192;BME280;50497;50.720;-2.084;2023-07-08T06:00:58;101542.69;;;19.94;100.00
64192;BME280;50497;50.720;-2.084;2023-07-08T06:03:24;101554.78;;;20.15;100.00
64192;BME280;50497;50.720;-2.084;2023-07-08T06:05:49;101562.56;;;20.43;100.00
64192;BME280;50497;50.720;-2.084;2023-07-08T06:08:15;101572.09;;;20.73;100.00
64192;BME280;50497;50.720;-2.084;2023-07-08T06:10:44;101589.44;;;20.83;100.00
64192;BME280;50497;50.720;-2.084;2023-07-08T06:13:10;101622.31;;;21.16;100.00
64192;BME280;50497;50.720;-2.084;2023-07-08T06:15:36;101640.25;;;21.30;100.00
64192;BME280;50497;50.720;-2.084;2023-07-08T06:18:01;101681.34;;;21.38;100.00
64192;BME280;50497;50.720;-2.084;2023-07-08T06:20:28;101705.22;;;21.58;100.00
64192;BME280;50497;50.720;-2.084;2023-07-08T06:22:53;101749.06;;;21.67;100.00
64192;BME280;50497;50.720;-2.084;2023-07-08T06:25:19;101783.22;;;21.71;100.00
64192;BME280;50497;50.720;-2.084;2023-07-08T06:27:45;101788.81;;;21.45;100.00
64192;BME280;50497;50.720;-2.084;2023-07-08T06:30:10;101809.59;;;21.46;100.00
64192;BME280;50497;50.720;-2.084;2023-07-08T06:32:36;101825.72;;;21.49;100.00
64192;BME280;50497;50.720;-2.084;2023-07-08T06:35:01;101819.91;;;21.30;100.00
64192;BME280;50497;50.720;-2.084;2023-07-08T06:37:26;101796.06;;;21.09;100.00
64192;BME280;50497;50.720;-2.084;2023-07-08T06:39:52;101778.34;;;21.28;100.00
64192;BME280;50497;50.720;-2.084;2023-07-08T06:42:17;101773.59;;;21.18;100.00
64192;BME280;50497;50.720;-2.084;2023-07-08T06:44:42;101771.81;;;21.30;100.00
64192;BME280;50497;50.720;-2.084;2023-07-08T06:47:16;101773.25;;;20.99;100.00
64192;BME280;50497;50.720;-2.084;2023-07-08T06:49:42;101769.78;;;20.97;100.00
64192;BME280;50497;50.720;-2.084;2023-07-08T06:52:07;101770.00;;;20.94;100.00
64192;BME280;50497;50.720;-2.084;2023-07-08T06:54:32;101766.69;;;20.77;100.00
64192;BME280;50497;50.720;-2.084;2023-07-08T06:56:57;101761.81;;;20.70;100.00
64192;BME280;50497;50.720;-2.084;2023-07-08T06:59:23;101717.50;;;20.43;100.00
64192;BME280;50497;50.720;-2.084;2023-07-08T07:01:48;101708.66;;;20.53;100.00
64192;BME280;50497;50.720;-2.084;2023-07-08T07:04:13;101711.38;;;20.65;100.00
64192;BME280;50497;50.720;-2.084;2023-07-08T07:06:39;101706.69;;;20.55;100.00
64192;BME280;50497;50.720;-2.084;2023-07-08T07:09:04;101705.78;;;20.30;100.00
64192;BME280;50497;50.720;-2.084;2023-07-08T07:11:29;101688.06;;;20.37;100.00
64192;BME280;50497;50.720;-2.084;2023-07-08T07:13:55;101700.22;;;20.44;100.00
64192;BME280;50497;50.720;-2.084;2023-07-08T07:16:20;101695.81;;;20.18;100.00
64192;BME280;50497;50.720;-2.084;2023-07-08T07:18:45;101680.19;;;20.08;100.00
64192;BME280;50497;50.720;-2.084;2023-07-08T07:21:11;101685.19;;;20.02;100.00
64192;BME280;50497;50.720;-2.084;2023-07-08T07:23:36;101660.19;;;20.09;100.00
64192;BME280;50497;50.720;-2.084;2023-07-08T07:26:02;101661.00;;;19.86;100.00
64192;BME280;50497;50.720;-2.084;2023-07-08T07:28:28;101662.94;;;19.84;100.00
64192;BME280;50497;50.720;-2.084;2023-07-08T07:30:58;101659.34;;;19.70;100.00
64192;BME280;50497;50.720;-2.084;2023-07-08T07:33:24;101674.56;;;19.60;100.00
64192;BME280;50497;50.720;-2.084;2023-07-08T07:35:49;101675.97;;;19.79;100.00
64192;BME280;50497;50.720;-2.084;2023-07-08T07:38:15;101666.72;;;19.68;100.00
64192;BME280;50497;50.720;-2.084;2023-07-08T07:40:41;101655.88;;;19.55;100.00
64192;BME280;50497;50.720;-2.084;2023-07-08T07:43:06;101663.47;;;19.63;100.00
64192;BME280;50497;50.720;-2.084;2023-07-08T07:45:32;101668.38;;;19.58;100.00
64192;BME280;50497;50.720;-2.084;2023-07-08T07:47:57;101664.78;;;19.57;100.00
64192;BME280;50497;50.720;-2.084;2023-07-08T07:50:23;101672.06;;;19.57;100.00
64192;BME280;50497;50.720;-2.084;2023-07-08T07:52:48;101670.34;;;19.56;100.00
64192;BME280;50497;50.720;-2.084;2023-07-08T07:55:14;101660.44;;;19.55;100.00
64192;BME280;50497;50.720;-2.084;2023-07-08T07:57:39;101650.44;;;19.55;100.00
64192;BME280;50497;50.720;-2.084;2023-07-08T08:00:07;101658.72;;;19.41;100.00
64192;BME280;50497;50.720;-2.084;2023-07-08T08:02:34;101645.22;;;19.65;100.00
64192;BME280;50497;50.720;-2.084;2023-07-08T08:04:59;101648.72;;;19.67;100.00
64192;BME280;50497;50.720;-2.084;2023-07-08T08:07:24;101645.34;;;19.89;100.00
64192;BME280;50497;50.720;-2.084;2023-07-08T08:09:49;101626.25;;;19.91;100.00
64192;BME280;50497;50.720;-2.084;2023-07-08T08:12:15;101619.38;;;19.98;100.00
64192;BME280;50497;50.720;-2.084;2023-07-08T08:14:40;101599.72;;;19.94;100.00
64192;BME280;50497;50.720;-2.084;2023-07-08T08:17:06;101609.56;;;20.08;100.00
64192;BME280;50497;50.720;-2.084;2023-07-08T08:19:31;101588.34;;;19.77;100.00
64192;BME280;50497;50.720;-2.084;2023-07-08T08:21:57;101600.75;;;19.81;100.00
64192;BME280;50497;50.720;-2.084;2023-07-08T08:24:22;101593.22;;;19.71;100.00
64192;BME280;50497;50.720;-2.084;2023-07-08T08:26:48;101576.41;;;19.79;100.00
64192;BME280;50497;50.720;-2.084;2023-07-08T08:29:13;101566.94;;;19.85;100.00
64192;BME280;50497;50.720;-2.084;2023-07-08T08:31:39;101553.78;;;19.79;100.00
64192;BME280;50497;50.720;-2.084;2023-07-08T08:34:04;101547.47;;;19.91;100.00
64192;BME280;50497;50.720;-2.084;2023-07-08T08:36:30;101553.75;;;19.91;100.00
64192;BME280;50497;50.720;-2.084;2023-07-08T08:38:55;101573.50;;;20.06;100.00
64192;BME280;50497;50.720;-2.084;2023-07-08T08:41:30;101583.88;;;20.25;100.00
64192;BME280;50497;50.720;-2.084;2023-07-08T08:43:56;101562.63;;;20.06;100.00
64192;BME280;50497;50.720;-2.084;2023-07-08T08:51:28;101573.19;;;21.06;100.00
64192;BME280;50497;50.720;-2.084;2023-07-08T08:53:57;101564.09;;;21.75;100.00
64192;BME280;50497;50.720;-2.084;2023-07-08T08:56:39;101558.41;;;22.22;100.00
64192;BME280;50497;50.720;-2.084;2023-07-08T08:59:14;101572.16;;;22.64;100.00
64192;BME280;50497;50.720;-2.084;2023-07-08T09:01:42;101594.75;;;22.87;100.00
64192;BME280;50497;50.720;-2.084;2023-07-08T09:04:12;101630.13;;;23.83;100.00
64192;BME280;50497;50.720;-2.084;2023-07-08T09:06:42;101662.47;;;25.17;100.00
64192;BME280;50497;50.720;-2.084;2023-07-08T09:12:19;101794.16;;;23.92;100.00
64192;BME280;50497;50.720;-2.084;2023-07-08T09:14:46;101800.81;;;24.00;100.00
64192;BME280;50497;50.720;-2.084;2023-07-08T09:17:32;101804.84;;;23.63;100.00
64192;BME280;50497;50.720;-2.084;2023-07-08T09:20:22;101793.66;;;23.01;100.00
64192;BME280;50497;50.720;-2.084;2023-07-08T09:22:53;101797.31;;;23.34;100.00
64192;BME280;50497;50.720;-2.084;2023-07-08T09:25:24;101808.19;;;23.67;100.00
64192;BME280;50497;50.720;-2.084;2023-07-08T09:27:51;101840.66;;;23.81;100.00
64192;BME280;50497;50.720;-2.084;2023-07-08T09:30:19;101863.47;;;23.91;100.00
64192;BME280;50497;50.720;-2.084;2023-07-08T09:32:49;101849.84;;;23.80;100.00
64192;BME280;50497;50.720;-2.084;2023-07-08T09:35:27;101905.44;;;24.75;100.00
64192;BME280;50497;50.720;-2.084;2023-07-08T09:37:54;101937.13;;;24.67;100.00
64192;BME280;50497;50.720;-2.084;2023-07-08T09:40:30;101973.88;;;24.75;100.00
64192;BME280;50497;50.720;-2.084;2023-07-08T09:43:23;102065.06;;;25.58;100.00
64192;BME280;50497;50.720;-2.084;2023-07-08T09:45:49;102144.22;;;25.51;100.00
64192;BME280;50497;50.720;-2.084;2023-07-08T09:48:17;102157.63;;;25.02;100.00
64192;BME280;50497;50.720;-2.084;2023-07-08T09:50:44;102140.53;;;24.45;100.00
64192;BME280;50497;50.720;-2.084;2023-07-08T09:53:13;102130.31;;;24.04;100.00
64192;BME280;50497;50.720;-2.084;2023-07-08T09:55:39;102105.97;;;23.78;100.00
64192;BME280;50497;50.720;-2.084;2023-07-08T09:58:05;102079.56;;;23.33;100.00
64192;BME280;50497;50.720;-2.084;2023-07-08T10:00:38;102029.03;;;23.28;100.00
64192;BME280;50497;50.720;-2.084;2023-07-08T10:03:09;102019.41;;;23.67;100.00
64192;BME280;50497;50.720;-2.084;2023-07-08T10:05:40;102060.06;;;24.48;100.00
64192;BME280;50497;50.720;-2.084;2023-07-08T10:08:28;102134.00;;;24.90;100.00
64192;BME280;50497;50.720;-2.084;2023-07-08T10:11:03;102138.00;;;24.53;100.00
64192;BME280;50497;50.720;-2.084;2023-07-08T10:13:34;102131.84;;;23.85;100.00
64192;BME280;50497;50.720;-2.084;2023-07-08T10:18:40;102110.44;;;24.02;100.00
64192;BME280;50497;50.720;-2.084;2023-07-08T10:29:53;102171.69;;;23.76;100.00
64192;BME280;50497;50.720;-2.084;2023-07-08T10:48:28;102021.53;;;22.96;100.00
64192;BME280;50497;50.720;-2.084;2023-07-08T10:56:26;102019.22;;;23.14;100.00
64192;BME280;50497;50.720;-2.084;2023-07-08T11:07:52;102004.75;;;22.66;100.00
64192;BME280;50497;50.720;-2.084;2023-07-08T11:13:16;101977.06;;;22.48;100.00
64192;BME280;50497;50.720;-2.084;2023-07-08T11:18:17;101974.13;;;22.27;100.00
64192;BME280;50497;50.720;-2.084;2023-07-08T11:21:00;101964.28;;;22.49;100.00
64192;BME280;50497;50.720;-2.084;2023-07-08T11:23:33;101986.06;;;22.38;100.00
64192;BME280;50497;50.720;-2.084;2023-07-08T11:26:23;101971.84;;;22.10;100.00
64192;BME280;50497;50.720;-2.084;2023-07-08T11:28:53;101953.31;;;22.26;100.00
64192;BME280;50497;50.720;-2.084;2023-07-08T11:31:19;101966.00;;;22.39;100.00
64192;BME280;50497;50.720;-2.084;2023-07-08T11:33:46;101946.22;;;22.24;100.00
64192;BME280;50497;50.720;-2.084;2023-07-08T11:36:13;101928.81;;;22.38;100.00
64192;BME280;50497;50.720;-2.084;2023-07-08T11:38:48;101921.81;;;22.22;100.00
64192;BME280;50497;50.720;-2.084;2023-07-08T11:41:17;101918.78;;;22.03;100.00
64192;BME280;50497;50.720;-2.084;2023-07-08T11:46:12;101898.69;;;21.92;100.00
64192;BME280;50497;50.720;-2.084;2023-07-08T11:48:46;101879.56;;;22.17;100.00
64192;BME280;50497;50.720;-2.084;2023-07-08T11:51:18;101885.97;;;22.40;100.00
64192;BME280;50497;50.720;-2.084;2023-07-08T11:53:49;101864.66;;;22.45;100.00
64192;BME280;50497;50.720;-2.084;2023-07-08T12:08:59;101851.53;;;22.14;100.00
64192;BME280;50497;50.720;-2.084;2023-07-08T12:11:32;101857.31;;;21.87;100.00
64192;BME280;50497;50.720;-2.084;2023-07-08T12:14:00;101848.13;;;21.77;100.00
64192;BME280;50497;50.720;-2.084;2023-07-08T12:16:28;101838.28;;;21.99;100.00
64192;BME280;50497;50.720;-2.084;2023-07-08T12:18:54;101850.75;;;21.90;100.00
64192;BME280;50497;50.720;-2.084;2023-07-08T12:21:22;101838.44;;;21.73;100.00
64192;BME280;50497;50.720;-2.084;2023-07-08T12:23:49;101845.84;;;21.71;100.00
64192;BME280;50497;50.720;-2.084;2023-07-08T12:26:16;101857.78;;;21.81;100.00
64192;BME280;50497;50.720;-2.084;2023-07-08T12:28:42;101856.34;;;21.88;100.00
64192;BME280;50497;50.720;-2.084;2023-07-08T12:31:22;101865.94;;;21.81;100.00
64192;BME280;50497;50.720;-2.084;2023-07-08T12:33:48;101872.28;;;21.93;100.00
64192;BME280;50497;50.720;-2.084;2023-07-08T12:36:24;101856.22;;;22.37;100.00
64192;BME280;50497;50.720;-2.084;2023-07-08T12:38:55;101871.19;;;22.31;100.00
64192;BME280;50497;50.720;-2.084;2023-07-08T12:41:25;101882.09;;;22.31;100.00
64192;BME280;50497;50.720;-2.084;2023-07-08T12:43:51;101888.84;;;22.14;100.00
64192;BME280;50497;50.720;-2.084;2023-07-08T12:46:19;101914.22;;;22.50;100.00
64192;BME280;50497;50.720;-2.084;2023-07-08T12:48:45;101935.56;;;21.85;100.00
64192;BME280;50497;50.720;-2.084;2023-07-08T12:51:12;101926.78;;;21.82;100.00
64192;BME280;50497;50.720;-2.084;2023-07-08T12:53:38;101917.97;;;22.13;100.00
64192;BME280;50497;50.720;-2.084;2023-07-08T12:56:03;101924.72;;;22.32;100.00
64192;BME280;50497;50.720;-2.084;2023-07-08T12:58:31;101922.28;;;22.51;100.00
64192;BME280;50497;50.720;-2.084;2023-07-08T13:00:59;101941.03;;;22.56;100.00
64192;BME280;50497;50.720;-2.084;2023-07-08T13:03:28;101970.00;;;22.57;100.00
64192;BME280;50497;50.720;-2.084;2023-07-08T13:05:55;101982.06;;;22.55;100.00
64192;BME280;50497;50.720;-2.084;2023-07-08T13:08:24;101941.78;;;22.92;100.00
64192;BME280;50497;50.720;-2.084;2023-07-08T13:10:52;101953.94;;;23.22;100.00
64192;BME280;50497;50.720;-2.084;2023-07-08T13:13:23;101968.31;;;23.47;100.00
64192;BME280;50497;50.720;-2.084;2023-07-08T13:15:49;101986.47;;;23.36;100.00
64192;BME280;50497;50.720;-2.084;2023-07-08T13:18:17;102017.47;;;23.01;100.00
64192;BME280;50497;50.720;-2.084;2023-07-08T13:20:48;102016.28;;;22.70;100.00
64192;BME280;50497;50.720;-2.084;2023-07-08T13:23:15;102045.28;;;23.52;100.00
64192;BME280;50497;50.720;-2.084;2023-07-08T13:25:40;102086.38;;;22.81;100.00
64192;BME280;50497;50.720;-2.084;2023-07-08T13:28:29;102065.59;;;22.91;100.00
64192;BME280;50497;50.720;-2.084;2023-07-08T13:30:57;102094.69;;;23.60;100.00
64192;BME280;50497;50.720;-2.084;2023-07-08T13:33:23;102164.72;;;23.50;100.00
64192;BME280;50497;50.720;-2.084;2023-07-08T13:35:51;102129.38;;;23.01;100.00
64192;BME280;50497;50.720;-2.084;2023-07-08T13:38:19;102136.28;;;23.52;100.00
64192;BME280;50497;50.720;-2.084;2023-07-08T13:40:56;102161.00;;;23.39;100.00
64192;BME280;50497;50.720;-2.084;2023-07-08T13:43:29;102167.94;;;22.97;100.00
64192;BME280;50497;50.720;-2.084;2023-07-08T13:45:55;102142.66;;;22.70;100.00